Terminal Aerodrome Forecast
Issued by NWS

Home | Current Version | Previous Version | Graphics & Text | Print | Product List | Glossary On
Versions: 1 2 3 4 5 6 7 8 9 10 11 12 13
000
FTUS42 KMHX 211700
TAFOAJ
TAF
KOAJ 211735Z 2118/2218 34008KT P6SM BKN035
     FM212000 36005KT P6SM SKC
     FM220900 00000KT 4SM BR SKC
     FM221200 23006KT P6SM BKN150
      AMD LTD TO CLD VIS AND WIND=

USA.gov is the U.S. government's official web portal to all federal, state and local government web resources and services.